sensor_id;sensor_type;location;lat;lon;timestamp;P1;durP1;ratioP1;P2;durP2;ratioP2
24163;SDS011;12319;49.204;8.116;2023-07-13T00:01:57;4.30;;;3.08;;
24163;SDS011;12319;49.204;8.116;2023-07-13T00:04:24;4.20;;;3.10;;
24163;SDS011;12319;49.204;8.116;2023-07-13T00:06:53;5.40;;;3.20;;
24163;SDS011;12319;49.204;8.116;2023-07-13T00:09:19;4.20;;;3.00;;
24163;SDS011;12319;49.204;8.116;2023-07-13T00:11:50;5.05;;;3.30;;
24163;SDS011;12319;49.204;8.116;2023-07-13T00:14:17;4.50;;;3.25;;
24163;SDS011;12319;49.204;8.116;2023-07-13T00:16:43;5.23;;;3.30;;
24163;SDS011;12319;49.204;8.116;2023-07-13T00:19:10;5.32;;;3.28;;
24163;SDS011;12319;49.204;8.116;2023-07-13T00:21:37;4.30;;;3.10;;
24163;SDS011;12319;49.204;8.116;2023-07-13T00:24:07;4.40;;;3.20;;
24163;SDS011;12319;49.204;8.116;2023-07-13T00:26:37;4.95;;;3.28;;
24163;SDS011;12319;49.204;8.116;2023-07-13T00:29:03;5.20;;;3.22;;
24163;SDS011;12319;49.204;8.116;2023-07-13T00:31:33;5.70;;;3.30;;
24163;SDS011;12319;49.204;8.116;2023-07-13T00:34:00;4.50;;;3.00;;
24163;SDS011;12319;49.204;8.116;2023-07-13T00:36:26;4.50;;;3.05;;
24163;SDS011;12319;49.204;8.116;2023-07-13T00:38:51;4.37;;;3.17;;
24163;SDS011;12319;49.204;8.116;2023-07-13T00:41:17;4.25;;;3.10;;
24163;SDS011;12319;49.204;8.116;2023-07-13T00:43:43;4.80;;;3.17;;
24163;SDS011;12319;49.204;8.116;2023-07-13T00:48:49;4.50;;;3.40;;
24163;SDS011;12319;49.204;8.116;2023-07-13T00:51:17;4.50;;;3.33;;
24163;SDS011;12319;49.204;8.116;2023-07-13T00:53:46;6.93;;;3.30;;
24163;SDS011;12319;49.204;8.116;2023-07-13T00:56:12;5.20;;;3.80;;
24163;SDS011;12319;49.204;8.116;2023-07-13T00:58:38;4.47;;;3.33;;
24163;SDS011;12319;49.204;8.116;2023-07-13T01:01:04;4.43;;;3.27;;
24163;SDS011;12319;49.204;8.116;2023-07-13T01:03:29;6.95;;;3.55;;
24163;SDS011;12319;49.204;8.116;2023-07-13T01:05:55;4.70;;;3.43;;
24163;SDS011;12319;49.204;8.116;2023-07-13T01:08:21;4.78;;;3.38;;
24163;SDS011;12319;49.204;8.116;2023-07-13T01:10:51;4.85;;;3.60;;
24163;SDS011;12319;49.204;8.116;2023-07-13T01:13:21;5.43;;;3.20;;
24163;SDS011;12319;49.204;8.116;2023-07-13T01:15:47;4.68;;;3.53;;
24163;SDS011;12319;49.204;8.116;2023-07-13T01:18:15;4.47;;;3.30;;
24163;SDS011;12319;49.204;8.116;2023-07-13T01:23:23;4.47;;;3.35;;
24163;SDS011;12319;49.204;8.116;2023-07-13T01:25:49;6.03;;;3.50;;
24163;SDS011;12319;49.204;8.116;2023-07-13T01:28:15;4.72;;;3.42;;
24163;SDS011;12319;49.204;8.116;2023-07-13T01:30:42;4.80;;;3.30;;
24163;SDS011;12319;49.204;8.116;2023-07-13T01:33:11;4.65;;;3.30;;
24163;SDS011;12319;49.204;8.116;2023-07-13T01:35:38;5.32;;;3.17;;
24163;SDS011;12319;49.204;8.116;2023-07-13T01:38:04;4.80;;;3.43;;
24163;SDS011;12319;49.204;8.116;2023-07-13T01:40:30;4.47;;;3.30;;
24163;SDS011;12319;49.204;8.116;2023-07-13T01:42:56;4.40;;;3.30;;
24163;SDS011;12319;49.204;8.116;2023-07-13T01:45:22;4.90;;;3.60;;
24163;SDS011;12319;49.204;8.116;2023-07-13T01:47:48;6.05;;;3.50;;
24163;SDS011;12319;49.204;8.116;2023-07-13T01:50:14;4.73;;;3.20;;
24163;SDS011;12319;49.204;8.116;2023-07-13T01:52:39;4.20;;;2.92;;
24163;SDS011;12319;49.204;8.116;2023-07-13T01:55:05;4.90;;;3.30;;
24163;SDS011;12319;49.204;8.116;2023-07-13T01:57:31;4.40;;;3.20;;
24163;SDS011;12319;49.204;8.116;2023-07-13T01:59:57;4.30;;;3.20;;
24163;SDS011;12319;49.204;8.116;2023-07-13T02:02:22;4.40;;;3.00;;
24163;SDS011;12319;49.204;8.116;2023-07-13T02:04:48;4.50;;;3.22;;
24163;SDS011;12319;49.204;8.116;2023-07-13T02:07:13;4.73;;;3.33;;
24163;SDS011;12319;49.204;8.116;2023-07-13T02:09:40;5.45;;;3.22;;
24163;SDS011;12319;49.204;8.116;2023-07-13T02:12:07;4.40;;;3.25;;
24163;SDS011;12319;49.204;8.116;2023-07-13T02:14:33;4.73;;;3.30;;
24163;SDS011;12319;49.204;8.116;2023-07-13T02:16:58;4.75;;;3.35;;
24163;SDS011;12319;49.204;8.116;2023-07-13T02:19:24;4.50;;;3.40;;
24163;SDS011;12319;49.204;8.116;2023-07-13T02:21:50;5.00;;;3.43;;
24163;SDS011;12319;49.204;8.116;2023-07-13T02:24:15;5.30;;;3.40;;
24163;SDS011;12319;49.204;8.116;2023-07-13T02:26:43;4.72;;;3.45;;
24163;SDS011;12319;49.204;8.116;2023-07-13T02:29:09;4.53;;;3.30;;
24163;SDS011;12319;49.204;8.116;2023-07-13T02:31:35;4.40;;;3.40;;
24163;SDS011;12319;49.204;8.116;2023-07-13T02:34:01;4.68;;;3.40;;
24163;SDS011;12319;49.204;8.116;2023-07-13T02:36:27;4.22;;;3.13;;
24163;SDS011;12319;49.204;8.116;2023-07-13T02:38:53;4.47;;;3.30;;
24163;SDS011;12319;49.204;8.116;2023-07-13T02:41:19;5.20;;;3.30;;
24163;SDS011;12319;49.204;8.116;2023-07-13T02:43:44;4.67;;;3.40;;
24163;SDS011;12319;49.204;8.116;2023-07-13T02:46:10;4.60;;;3.40;;
24163;SDS011;12319;49.204;8.116;2023-07-13T02:48:36;4.35;;;3.20;;
24163;SDS011;12319;49.204;8.116;2023-07-13T02:51:03;4.80;;;3.30;;
24163;SDS011;12319;49.204;8.116;2023-07-13T02:53:28;6.68;;;3.90;;
24163;SDS011;12319;49.204;8.116;2023-07-13T02:55:55;5.10;;;3.58;;
24163;SDS011;12319;49.204;8.116;2023-07-13T02:58:20;5.20;;;3.63;;
24163;SDS011;12319;49.204;8.116;2023-07-13T03:00:46;6.05;;;3.53;;
24163;SDS011;12319;49.204;8.116;2023-07-13T03:03:13;4.40;;;3.37;;
24163;SDS011;12319;49.204;8.116;2023-07-13T03:05:40;5.35;;;3.42;;
24163;SDS011;12319;49.204;8.116;2023-07-13T03:08:07;5.00;;;3.50;;
24163;SDS011;12319;49.204;8.116;2023-07-13T03:10:33;4.43;;;3.22;;
24163;SDS011;12319;49.204;8.116;2023-07-13T03:12:58;4.60;;;3.40;;
24163;SDS011;12319;49.204;8.116;2023-07-13T03:15:24;4.60;;;3.40;;
24163;SDS011;12319;49.204;8.116;2023-07-13T03:17:49;4.57;;;3.37;;
24163;SDS011;12319;49.204;8.116;2023-07-13T03:20:15;4.63;;;3.43;;
24163;SDS011;12319;49.204;8.116;2023-07-13T03:22:41;4.50;;;3.45;;
24163;SDS011;12319;49.204;8.116;2023-07-13T03:25:07;7.80;;;3.63;;
24163;SDS011;12319;49.204;8.116;2023-07-13T03:27:33;4.35;;;3.20;;
24163;SDS011;12319;49.204;8.116;2023-07-13T03:29:58;4.90;;;3.63;;
24163;SDS011;12319;49.204;8.116;2023-07-13T03:32:24;6.00;;;3.50;;
24163;SDS011;12319;49.204;8.116;2023-07-13T03:34:49;4.30;;;3.27;;
24163;SDS011;12319;49.204;8.116;2023-07-13T03:37:15;5.70;;;3.60;;
24163;SDS011;12319;49.204;8.116;2023-07-13T03:39:41;5.35;;;3.40;;
24163;SDS011;12319;49.204;8.116;2023-07-13T03:42:07;4.88;;;3.60;;
24163;SDS011;12319;49.204;8.116;2023-07-13T03:44:32;4.40;;;3.40;;
24163;SDS011;12319;49.204;8.116;2023-07-13T03:46:58;4.60;;;3.60;;
24163;SDS011;12319;49.204;8.116;2023-07-13T03:49:23;4.57;;;3.58;;
24163;SDS011;12319;49.204;8.116;2023-07-13T03:51:49;4.60;;;3.60;;
24163;SDS011;12319;49.204;8.116;2023-07-13T03:54:15;6.10;;;3.50;;
24163;SDS011;12319;49.204;8.116;2023-07-13T03:56:40;4.70;;;3.50;;
24163;SDS011;12319;49.204;8.116;2023-07-13T03:59:06;4.57;;;3.37;;
24163;SDS011;12319;49.204;8.116;2023-07-13T04:01:31;4.70;;;3.70;;
24163;SDS011;12319;49.204;8.116;2023-07-13T04:03:57;4.33;;;3.23;;
24163;SDS011;12319;49.204;8.116;2023-07-13T04:06:25;5.30;;;3.70;;
24163;SDS011;12319;49.204;8.116;2023-07-13T04:08:54;4.40;;;3.30;;
24163;SDS011;12319;49.204;8.116;2023-07-13T04:11:22;5.07;;;3.60;;
24163;SDS011;12319;49.204;8.116;2023-07-13T04:13:50;4.93;;;3.70;;
24163;SDS011;12319;49.204;8.116;2023-07-13T04:16:16;5.38;;;3.58;;
24163;SDS011;12319;49.204;8.116;2023-07-13T04:18:43;5.00;;;3.70;;
24163;SDS011;12319;49.204;8.116;2023-07-13T04:21:09;4.90;;;3.57;;
24163;SDS011;12319;49.204;8.116;2023-07-13T04:23:36;5.50;;;3.70;;
24163;SDS011;12319;49.204;8.116;2023-07-13T04:26:02;5.03;;;3.90;;
24163;SDS011;12319;49.204;8.116;2023-07-13T04:28:28;6.15;;;3.67;;
24163;SDS011;12319;49.204;8.116;2023-07-13T04:30:55;4.80;;;4.00;;
24163;SDS011;12319;49.204;8.116;2023-07-13T04:33:21;4.80;;;3.67;;
24163;SDS011;12319;49.204;8.116;2023-07-13T04:35:48;6.85;;;3.67;;
24163;SDS011;12319;49.204;8.116;2023-07-13T04:38:21;5.20;;;4.22;;
24163;SDS011;12319;49.204;8.116;2023-07-13T04:40:52;4.85;;;3.88;;
24163;SDS011;12319;49.204;8.116;2023-07-13T04:43:19;4.70;;;3.57;;
24163;SDS011;12319;49.204;8.116;2023-07-13T04:45:45;5.85;;;3.90;;
24163;SDS011;12319;49.204;8.116;2023-07-13T04:48:11;5.33;;;3.70;;
24163;SDS011;12319;49.204;8.116;2023-07-13T04:50:37;6.57;;;3.60;;
24163;SDS011;12319;49.204;8.116;2023-07-13T04:53:03;4.93;;;3.70;;
24163;SDS011;12319;49.204;8.116;2023-07-13T04:55:29;4.80;;;3.80;;
24163;SDS011;12319;49.204;8.116;2023-07-13T04:57:55;5.57;;;4.20;;
24163;SDS011;12319;49.204;8.116;2023-07-13T05:00:23;4.90;;;4.00;;
24163;SDS011;12319;49.204;8.116;2023-07-13T05:02:49;5.40;;;4.20;;
24163;SDS011;12319;49.204;8.116;2023-07-13T05:05:15;5.10;;;3.50;;
24163;SDS011;12319;49.204;8.116;2023-07-13T05:07:40;4.60;;;3.35;;
24163;SDS011;12319;49.204;8.116;2023-07-13T05:10:06;5.43;;;4.00;;
24163;SDS011;12319;49.204;8.116;2023-07-13T05:12:32;5.80;;;3.60;;
24163;SDS011;12319;49.204;8.116;2023-07-13T05:14:58;4.67;;;3.83;;
24163;SDS011;12319;49.204;8.116;2023-07-13T05:17:23;4.55;;;3.40;;
24163;SDS011;12319;49.204;8.116;2023-07-13T05:19:49;5.13;;;3.50;;
24163;SDS011;12319;49.204;8.116;2023-07-13T05:22:15;4.63;;;3.50;;
24163;SDS011;12319;49.204;8.116;2023-07-13T05:24:40;4.53;;;3.50;;
24163;SDS011;12319;49.204;8.116;2023-07-13T05:27:06;5.30;;;3.47;;
24163;SDS011;12319;49.204;8.116;2023-07-13T05:29:31;5.10;;;3.72;;
24163;SDS011;12319;49.204;8.116;2023-07-13T05:31:57;5.03;;;3.40;;
24163;SDS011;12319;49.204;8.116;2023-07-13T05:34:22;4.80;;;3.80;;
24163;SDS011;12319;49.204;8.116;2023-07-13T05:36:48;4.97;;;3.60;;
24163;SDS011;12319;49.204;8.116;2023-07-13T05:39:15;6.45;;;3.70;;
24163;SDS011;12319;49.204;8.116;2023-07-13T05:41:41;4.80;;;3.80;;
24163;SDS011;12319;49.204;8.116;2023-07-13T05:44:06;6.75;;;5.05;;
24163;SDS011;12319;49.204;8.116;2023-07-13T05:46:32;7.70;;;4.13;;
24163;SDS011;12319;49.204;8.116;2023-07-13T05:48:58;5.85;;;3.97;;
24163;SDS011;12319;49.204;8.116;2023-07-13T05:51:24;5.30;;;3.80;;
24163;SDS011;12319;49.204;8.116;2023-07-13T05:53:49;5.55;;;3.67;;
24163;SDS011;12319;49.204;8.116;2023-07-13T05:56:15;7.00;;;4.03;;
24163;SDS011;12319;49.204;8.116;2023-07-13T05:58:41;5.23;;;3.87;;
24163;SDS011;12319;49.204;8.116;2023-07-13T06:01:08;5.35;;;4.10;;
24163;SDS011;12319;49.204;8.116;2023-07-13T06:03:36;5.10;;;4.00;;
24163;SDS011;12319;49.204;8.116;2023-07-13T06:06:05;5.07;;;3.80;;
24163;SDS011;12319;49.204;8.116;2023-07-13T06:08:31;5.55;;;4.22;;
24163;SDS011;12319;49.204;8.116;2023-07-13T06:13:30;4.93;;;3.83;;
24163;SDS011;12319;49.204;8.116;2023-07-13T06:15:56;5.30;;;3.42;;
24163;SDS011;12319;49.204;8.116;2023-07-13T06:18:21;5.47;;;3.80;;
24163;SDS011;12319;49.204;8.116;2023-07-13T06:20:47;6.80;;;3.50;;
24163;SDS011;12319;49.204;8.116;2023-07-13T06:23:12;4.82;;;3.67;;
24163;SDS011;12319;49.204;8.116;2023-07-13T06:25:38;4.80;;;3.23;;
24163;SDS011;12319;49.204;8.116;2023-07-13T06:28:04;5.47;;;3.42;;
24163;SDS011;12319;49.204;8.116;2023-07-13T06:30:30;5.03;;;3.57;;
24163;SDS011;12319;49.204;8.116;2023-07-13T06:32:56;4.90;;;3.80;;
24163;SDS011;12319;49.204;8.116;2023-07-13T06:35:22;6.50;;;4.10;;
24163;SDS011;12319;49.204;8.116;2023-07-13T06:37:48;4.80;;;3.70;;
24163;SDS011;12319;49.204;8.116;2023-07-13T06:40:13;5.50;;;3.97;;
24163;SDS011;12319;49.204;8.116;2023-07-13T06:42:39;5.20;;;3.40;;
24163;SDS011;12319;49.204;8.116;2023-07-13T06:45:05;6.43;;;3.97;;
24163;SDS011;12319;49.204;8.116;2023-07-13T06:47:30;5.57;;;3.63;;
24163;SDS011;12319;49.204;8.116;2023-07-13T06:49:57;4.68;;;3.60;;
24163;SDS011;12319;49.204;8.116;2023-07-13T06:52:22;6.05;;;3.95;;
24163;SDS011;12319;49.204;8.116;2023-07-13T06:54:48;5.10;;;4.00;;
24163;SDS011;12319;49.204;8.116;2023-07-13T06:57:13;5.00;;;3.80;;
24163;SDS011;12319;49.204;8.116;2023-07-13T06:59:39;4.83;;;4.00;;
24163;SDS011;12319;49.204;8.116;2023-07-13T07:02:04;5.00;;;3.47;;
24163;SDS011;12319;49.204;8.116;2023-07-13T07:04:30;5.57;;;4.38;;
24163;SDS011;12319;49.204;8.116;2023-07-13T07:06:56;5.10;;;3.63;;
24163;SDS011;12319;49.204;8.116;2023-07-13T07:09:22;5.70;;;3.73;;
24163;SDS011;12319;49.204;8.116;2023-07-13T07:11:47;5.20;;;4.30;;
24163;SDS011;12319;49.204;8.116;2023-07-13T07:14:13;6.23;;;4.43;;
24163;SDS011;12319;49.204;8.116;2023-07-13T07:16:38;5.20;;;4.30;;
24163;SDS011;12319;49.204;8.116;2023-07-13T07:19:04;5.20;;;4.20;;
24163;SDS011;12319;49.204;8.116;2023-07-13T07:21:29;5.60;;;4.00;;
24163;SDS011;12319;49.204;8.116;2023-07-13T07:23:56;5.07;;;3.97;;
24163;SDS011;12319;49.204;8.116;2023-07-13T07:26:22;5.05;;;3.90;;
24163;SDS011;12319;49.204;8.116;2023-07-13T07:28:47;5.70;;;3.50;;
24163;SDS011;12319;49.204;8.116;2023-07-13T07:31:13;4.63;;;3.70;;
24163;SDS011;12319;49.204;8.116;2023-07-13T07:33:38;4.70;;;3.97;;
24163;SDS011;12319;49.204;8.116;2023-07-13T07:36:04;5.63;;;4.53;;
24163;SDS011;12319;49.204;8.116;2023-07-13T07:38:30;5.82;;;3.72;;
24163;SDS011;12319;49.204;8.116;2023-07-13T07:40:55;4.67;;;3.83;;
24163;SDS011;12319;49.204;8.116;2023-07-13T07:43:21;6.07;;;4.20;;
24163;SDS011;12319;49.204;8.116;2023-07-13T07:45:47;5.93;;;4.00;;
24163;SDS011;12319;49.204;8.116;2023-07-13T07:48:12;5.03;;;4.20;;
24163;SDS011;12319;49.204;8.116;2023-07-13T07:50:38;6.20;;;3.90;;
24163;SDS011;12319;49.204;8.116;2023-07-13T07:53:04;5.50;;;3.97;;
24163;SDS011;12319;49.204;8.116;2023-07-13T07:55:32;5.18;;;4.20;;
24163;SDS011;12319;49.204;8.116;2023-07-13T07:58:00;5.35;;;4.10;;
24163;SDS011;12319;49.204;8.116;2023-07-13T08:00:25;5.07;;;3.40;;
24163;SDS011;12319;49.204;8.116;2023-07-13T08:02:51;5.95;;;4.32;;
24163;SDS011;12319;49.204;8.116;2023-07-13T08:05:17;5.33;;;4.53;;
24163;SDS011;12319;49.204;8.116;2023-07-13T08:07:43;5.18;;;4.10;;
24163;SDS011;12319;49.204;8.116;2023-07-13T08:10:09;4.70;;;3.80;;
24163;SDS011;12319;49.204;8.116;2023-07-13T08:12:38;6.55;;;4.03;;
24163;SDS011;12319;49.204;8.116;2023-07-13T08:15:05;4.78;;;3.63;;
24163;SDS011;12319;49.204;8.116;2023-07-13T08:17:33;5.05;;;3.70;;
24163;SDS011;12319;49.204;8.116;2023-07-13T08:19:59;5.10;;;3.70;;
24163;SDS011;12319;49.204;8.116;2023-07-13T08:22:24;4.90;;;3.75;;
24163;SDS011;12319;49.204;8.116;2023-07-13T08:24:50;5.75;;;3.53;;
24163;SDS011;12319;49.204;8.116;2023-07-13T08:27:21;5.80;;;3.90;;
24163;SDS011;12319;49.204;8.116;2023-07-13T08:29:48;4.80;;;3.83;;
24163;SDS011;12319;49.204;8.116;2023-07-13T08:32:14;4.90;;;3.63;;
24163;SDS011;12319;49.204;8.116;2023-07-13T08:34:40;5.00;;;3.75;;
24163;SDS011;12319;49.204;8.116;2023-07-13T08:37:06;5.30;;;3.70;;
24163;SDS011;12319;49.204;8.116;2023-07-13T08:39:32;5.17;;;3.70;;
24163;SDS011;12319;49.204;8.116;2023-07-13T08:41:59;5.35;;;3.67;;
24163;SDS011;12319;49.204;8.116;2023-07-13T08:44:55;6.82;;;3.70;;
24163;SDS011;12319;49.204;8.116;2023-07-13T08:47:15;5.75;;;4.10;;
24163;SDS011;12319;49.204;8.116;2023-07-13T08:49:43;5.43;;;3.60;;
24163;SDS011;12319;49.204;8.116;2023-07-13T08:54:48;6.03;;;3.55;;
24163;SDS011;12319;49.204;8.116;2023-07-13T08:57:17;5.30;;;4.00;;
24163;SDS011;12319;49.204;8.116;2023-07-13T08:59:45;5.28;;;3.92;;
24163;SDS011;12319;49.204;8.116;2023-07-13T09:04:50;4.70;;;3.60;;
24163;SDS011;12319;49.204;8.116;2023-07-13T09:10:34;5.63;;;3.70;;
24163;SDS011;12319;49.204;8.116;2023-07-13T09:13:16;6.97;;;4.43;;
24163;SDS011;12319;49.204;8.116;2023-07-13T09:16:00;5.65;;;4.40;;
24163;SDS011;12319;49.204;8.116;2023-07-13T09:18:49;5.50;;;4.43;;
24163;SDS011;12319;49.204;8.116;2023-07-13T09:21:19;6.07;;;4.57;;
24163;SDS011;12319;49.204;8.116;2023-07-13T09:23:53;6.50;;;4.50;;
24163;SDS011;12319;49.204;8.116;2023-07-13T09:26:22;5.20;;;4.00;;
24163;SDS011;12319;49.204;8.116;2023-07-13T09:28:57;5.35;;;3.78;;
24163;SDS011;12319;49.204;8.116;2023-07-13T09:31:42;5.27;;;4.13;;
24163;SDS011;12319;49.204;8.116;2023-07-13T09:34:13;6.75;;;4.47;;
24163;SDS011;12319;49.204;8.116;2023-07-13T09:36:38;6.18;;;4.18;;
24163;SDS011;12319;49.204;8.116;2023-07-13T09:44:36;4.90;;;3.88;;
24163;SDS011;12319;49.204;8.116;2023-07-13T09:47:18;6.25;;;3.72;;
24163;SDS011;12319;49.204;8.116;2023-07-13T09:49:58;4.60;;;3.58;;
24163;SDS011;12319;49.204;8.116;2023-07-13T09:52:25;5.37;;;3.70;;
24163;SDS011;12319;49.204;8.116;2023-07-13T09:54:52;4.85;;;3.58;;
24163;SDS011;12319;49.204;8.116;2023-07-13T09:57:24;4.97;;;3.55;;
24163;SDS011;12319;49.204;8.116;2023-07-13T09:59:51;4.90;;;3.75;;
24163;SDS011;12319;49.204;8.116;2023-07-13T10:04:58;5.43;;;3.93;;
24163;SDS011;12319;49.204;8.116;2023-07-13T10:07:24;4.70;;;3.72;;
24163;SDS011;12319;49.204;8.116;2023-07-13T10:09:53;5.03;;;3.75;;
24163;SDS011;12319;49.204;8.116;2023-07-13T10:12:20;5.63;;;3.67;;
24163;SDS011;12319;49.204;8.116;2023-07-13T10:14:49;5.13;;;3.70;;
24163;SDS011;12319;49.204;8.116;2023-07-13T10:17:21;5.63;;;3.88;;
24163;SDS011;12319;49.204;8.116;2023-07-13T10:19:55;5.63;;;4.03;;
24163;SDS011;12319;49.204;8.116;2023-07-13T10:22:35;5.38;;;3.83;;
24163;SDS011;12319;49.204;8.116;2023-07-13T10:25:22;5.33;;;3.70;;
24163;SDS011;12319;49.204;8.116;2023-07-13T10:27:50;5.57;;;3.45;;
24163;SDS011;12319;49.204;8.116;2023-07-13T10:30:35;5.20;;;4.13;;
24163;SDS011;12319;49.204;8.116;2023-07-13T10:33:09;6.38;;;3.60;;
24163;SDS011;12319;49.204;8.116;2023-07-13T10:35:36;5.20;;;4.13;;
24163;SDS011;12319;49.204;8.116;2023-07-13T10:38:05;5.27;;;3.77;;
24163;SDS011;12319;49.204;8.116;2023-07-13T10:43:20;5.13;;;3.78;;
24163;SDS011;12319;49.204;8.116;2023-07-13T10:45:51;5.45;;;3.95;;
24163;SDS011;12319;49.204;8.116;2023-07-13T10:48:19;5.95;;;3.92;;
24163;SDS011;12319;49.204;8.116;2023-07-13T10:50:48;5.17;;;4.10;;
24163;SDS011;12319;49.204;8.116;2023-07-13T10:53:22;5.00;;;4.18;;
24163;SDS011;12319;49.204;8.116;2023-07-13T10:56:02;5.30;;;3.72;;
24163;SDS011;12319;49.204;8.116;2023-07-13T10:58:40;5.45;;;3.80;;
24163;SDS011;12319;49.204;8.116;2023-07-13T11:01:08;5.53;;;3.92;;
24163;SDS011;12319;49.204;8.116;2023-07-13T11:03:54;6.50;;;3.90;;
24163;SDS011;12319;49.204;8.116;2023-07-13T11:08:57;5.30;;;3.88;;
24163;SDS011;12319;49.204;8.116;2023-07-13T11:18:45;6.10;;;4.32;;
24163;SDS011;12319;49.204;8.116;2023-07-13T11:21:19;5.83;;;3.93;;
24163;SDS011;12319;49.204;8.116;2023-07-13T11:23:53;5.20;;;3.90;;
24163;SDS011;12319;49.204;8.116;2023-07-13T11:32:20;5.13;;;3.65;;
24163;SDS011;12319;49.204;8.116;2023-07-13T11:34:48;5.40;;;3.80;;
24163;SDS011;12319;49.204;8.116;2023-07-13T11:37:16;4.95;;;3.47;;
24163;SDS011;12319;49.204;8.116;2023-07-13T11:39:43;5.53;;;4.18;;
24163;SDS011;12319;49.204;8.116;2023-07-13T11:42:15;4.93;;;3.83;;
24163;SDS011;12319;49.204;8.116;2023-07-13T11:44:43;5.13;;;3.47;;
24163;SDS011;12319;49.204;8.116;2023-07-13T11:47:14;5.13;;;4.10;;
24163;SDS011;12319;49.204;8.116;2023-07-13T11:49:52;5.47;;;4.22;;
24163;SDS011;12319;49.204;8.116;2023-07-13T11:52:30;5.13;;;3.95;;
24163;SDS011;12319;49.204;8.116;2023-07-13T11:55:00;6.05;;;3.78;;
24163;SDS011;12319;49.204;8.116;2023-07-13T11:57:28;5.07;;;3.60;;
24163;SDS011;12319;49.204;8.116;2023-07-13T11:59:59;5.60;;;4.10;;
24163;SDS011;12319;49.204;8.116;2023-07-13T12:04:59;5.50;;;3.45;;
24163;SDS011;12319;49.204;8.116;2023-07-13T12:07:28;4.90;;;3.55;;
24163;SDS011;12319;49.204;8.116;2023-07-13T12:10:02;4.68;;;3.35;;
24163;SDS011;12319;49.204;8.116;2023-07-13T12:12:53;5.20;;;3.47;;
24163;SDS011;12319;49.204;8.116;2023-07-13T12:15:19;4.90;;;3.35;;
24163;SDS011;12319;49.204;8.116;2023-07-13T12:17:47;5.80;;;4.10;;
24163;SDS011;12319;49.204;8.116;2023-07-13T12:20:20;5.22;;;3.88;;
24163;SDS011;12319;49.204;8.116;2023-07-13T12:22:50;6.05;;;3.95;;
24163;SDS011;12319;49.204;8.116;2023-07-13T12:25:17;7.17;;;4.13;;
24163;SDS011;12319;49.204;8.116;2023-07-13T12:27:47;5.97;;;3.60;;
24163;SDS011;12319;49.204;8.116;2023-07-13T12:33:05;5.50;;;4.00;;
24163;SDS011;12319;49.204;8.116;2023-07-13T12:35:38;5.15;;;3.70;;
24163;SDS011;12319;49.204;8.116;2023-07-13T12:38:08;6.83;;;3.60;;
24163;SDS011;12319;49.204;8.116;2023-07-13T12:40:36;5.28;;;4.20;;
24163;SDS011;12319;49.204;8.116;2023-07-13T12:43:02;7.85;;;4.30;;
24163;SDS011;12319;49.204;8.116;2023-07-13T12:45:32;5.35;;;4.07;;
24163;SDS011;12319;49.204;8.116;2023-07-13T12:47:59;5.60;;;4.28;;
24163;SDS011;12319;49.204;8.116;2023-07-13T12:50:41;5.90;;;4.30;;
24163;SDS011;12319;49.204;8.116;2023-07-13T12:53:21;5.57;;;3.63;;
24163;SDS011;12319;49.204;8.116;2023-07-13T13:01:08;5.00;;;3.92;;
24163;SDS011;12319;49.204;8.116;2023-07-13T13:03:38;5.20;;;3.53;;
24163;SDS011;12319;49.204;8.116;2023-07-13T13:08:46;5.40;;;3.83;;
24163;SDS011;12319;49.204;8.116;2023-07-13T13:11:13;5.22;;;3.67;;
24163;SDS011;12319;49.204;8.116;2023-07-13T13:13:41;5.57;;;3.75;;
24163;SDS011;12319;49.204;8.116;2023-07-13T13:16:16;5.70;;;3.60;;
24163;SDS011;12319;49.204;8.116;2023-07-13T13:18:42;5.22;;;3.60;;
24163;SDS011;12319;49.204;8.116;2023-07-13T13:21:09;4.53;;;3.20;;
24163;SDS011;12319;49.204;8.116;2023-07-13T13:23:35;4.93;;;3.40;;
24163;SDS011;12319;49.204;8.116;2023-07-13T13:26:00;6.05;;;3.33;;
24163;SDS011;12319;49.204;8.116;2023-07-13T13:28:27;5.32;;;3.95;;
24163;SDS011;12319;49.204;8.116;2023-07-13T13:30:52;6.23;;;3.50;;
24163;SDS011;12319;49.204;8.116;2023-07-13T13:33:19;5.53;;;3.77;;
24163;SDS011;12319;49.204;8.116;2023-07-13T13:35:46;4.72;;;4.00;;
24163;SDS011;12319;49.204;8.116;2023-07-13T13:38:13;5.05;;;3.95;;
24163;SDS011;12319;49.204;8.116;2023-07-13T13:40:40;5.50;;;3.55;;
24163;SDS011;12319;49.204;8.116;2023-07-13T13:45:42;4.90;;;3.80;;
24163;SDS011;12319;49.204;8.116;2023-07-13T13:48:19;5.28;;;3.47;;
24163;SDS011;12319;49.204;8.116;2023-07-13T13:50:55;4.68;;;3.50;;
24163;SDS011;12319;49.204;8.116;2023-07-13T13:53:21;4.50;;;3.47;;
24163;SDS011;12319;49.204;8.116;2023-07-13T13:55:48;6.25;;;3.70;;
24163;SDS011;12319;49.204;8.116;2023-07-13T13:58:14;4.93;;;3.60;;
24163;SDS011;12319;49.204;8.116;2023-07-13T14:00:39;5.00;;;3.50;;
24163;SDS011;12319;49.204;8.116;2023-07-13T14:03:05;4.70;;;3.40;;
24163;SDS011;12319;49.204;8.116;2023-07-13T14:05:39;4.93;;;3.42;;
24163;SDS011;12319;49.204;8.116;2023-07-13T14:08:08;4.60;;;3.47;;
24163;SDS011;12319;49.204;8.116;2023-07-13T14:10:41;5.10;;;3.40;;
24163;SDS011;12319;49.204;8.116;2023-07-13T14:13:09;4.50;;;3.30;;
24163;SDS011;12319;49.204;8.116;2023-07-13T14:15:43;5.35;;;3.63;;
24163;SDS011;12319;49.204;8.116;2023-07-13T14:18:09;5.70;;;3.10;;
24163;SDS011;12319;49.204;8.116;2023-07-13T14:20:36;4.88;;;2.97;;
24163;SDS011;12319;49.204;8.116;2023-07-13T14:23:01;4.57;;;3.43;;
24163;SDS011;12319;49.204;8.116;2023-07-13T14:25:27;4.63;;;3.07;;
24163;SDS011;12319;49.204;8.116;2023-07-13T14:27:53;4.57;;;3.30;;
24163;SDS011;12319;49.204;8.116;2023-07-13T14:30:24;5.20;;;3.00;;
24163;SDS011;12319;49.204;8.116;2023-07-13T14:32:50;6.30;;;3.30;;
24163;SDS011;12319;49.204;8.116;2023-07-13T14:35:17;5.18;;;3.67;;
24163;SDS011;12319;49.204;8.116;2023-07-13T14:37:46;4.40;;;3.20;;
24163;SDS011;12319;49.204;8.116;2023-07-13T14:42:56;5.40;;;3.80;;
24163;SDS011;12319;49.204;8.116;2023-07-13T14:45:22;7.07;;;3.72;;
24163;SDS011;12319;49.204;8.116;2023-07-13T14:47:49;4.70;;;3.67;;
24163;SDS011;12319;49.204;8.116;2023-07-13T14:50:20;6.20;;;3.90;;
24163;SDS011;12319;49.204;8.116;2023-07-13T14:52:49;4.80;;;3.33;;
24163;SDS011;12319;49.204;8.116;2023-07-13T14:55:16;5.50;;;3.60;;
24163;SDS011;12319;49.204;8.116;2023-07-13T14:57:43;6.37;;;3.17;;
24163;SDS011;12319;49.204;8.116;2023-07-13T15:02:38;5.43;;;3.55;;
24163;SDS011;12319;49.204;8.116;2023-07-13T15:05:18;5.35;;;3.70;;
24163;SDS011;12319;49.204;8.116;2023-07-13T15:07:47;6.83;;;3.90;;
24163;SDS011;12319;49.204;8.116;2023-07-13T15:10:19;5.10;;;3.70;;
24163;SDS011;12319;49.204;8.116;2023-07-13T15:12:46;5.97;;;3.90;;
24163;SDS011;12319;49.204;8.116;2023-07-13T15:15:12;5.13;;;3.53;;
24163;SDS011;12319;49.204;8.116;2023-07-13T15:17:39;5.32;;;3.83;;
24163;SDS011;12319;49.204;8.116;2023-07-13T15:20:14;4.90;;;3.73;;
24163;SDS011;12319;49.204;8.116;2023-07-13T15:22:46;4.90;;;3.63;;
24163;SDS011;12319;49.204;8.116;2023-07-13T15:25:17;5.40;;;3.70;;
24163;SDS011;12319;49.204;8.116;2023-07-13T15:27:45;6.43;;;3.92;;
24163;SDS011;12319;49.204;8.116;2023-07-13T15:30:11;5.10;;;3.85;;
24163;SDS011;12319;49.204;8.116;2023-07-13T15:32:37;5.63;;;4.10;;
24163;SDS011;12319;49.204;8.116;2023-07-13T15:35:04;6.25;;;3.90;;
24163;SDS011;12319;49.204;8.116;2023-07-13T15:37:30;4.90;;;4.00;;
24163;SDS011;12319;49.204;8.116;2023-07-13T15:39:56;5.10;;;4.00;;
24163;SDS011;12319;49.204;8.116;2023-07-13T15:42:22;5.23;;;3.97;;
24163;SDS011;12319;49.204;8.116;2023-07-13T15:44:48;4.90;;;3.80;;
24163;SDS011;12319;49.204;8.116;2023-07-13T15:47:14;4.90;;;3.65;;
24163;SDS011;12319;49.204;8.116;2023-07-13T15:49:41;4.95;;;3.75;;
24163;SDS011;12319;49.204;8.116;2023-07-13T15:52:13;5.95;;;4.15;;
24163;SDS011;12319;49.204;8.116;2023-07-13T15:54:47;6.28;;;4.10;;
24163;SDS011;12319;49.204;8.116;2023-07-13T15:57:12;5.43;;;3.80;;